sensor_id;sensor_type;location;lat;lon;timestamp;pressure;altitude;pressure_sealevel;temperature;humidity
550;BME280;20066;48.764;9.176;2023-05-29T00:00:57;98216.97;;;19.11;45.79
550;BME280;20066;48.764;9.176;2023-05-29T00:03:26;98214.56;;;19.13;45.61
550;BME280;20066;48.764;9.176;2023-05-29T00:05:54;98217.19;;;18.28;47.46
550;BME280;20066;48.764;9.176;2023-05-29T00:08:22;98212.84;;;18.56;47.38
550;BME280;20066;48.764;9.176;2023-05-29T00:10:50;98221.53;;;18.25;48.05
550;BME280;20066;48.764;9.176;2023-05-29T00:13:19;98224.53;;;18.02;48.90
550;BME280;20066;48.764;9.176;2023-05-29T00:15:47;98224.41;;;18.47;47.69
550;BME280;20066;48.764;9.176;2023-05-29T00:18:15;98226.25;;;18.75;46.38
550;BME280;20066;48.764;9.176;2023-05-29T00:20:43;98219.34;;;18.20;47.66
550;BME280;20066;48.764;9.176;2023-05-29T00:23:11;98222.34;;;17.97;48.36
550;BME280;20066;48.764;9.176;2023-05-29T00:25:39;98218.28;;;18.43;47.52
550;BME280;20066;48.764;9.176;2023-05-29T00:28:07;98210.00;;;18.59;46.90
550;BME280;20066;48.764;9.176;2023-05-29T00:30:37;98211.25;;;18.04;48.47
550;BME280;20066;48.764;9.176;2023-05-29T00:33:04;98199.66;;;17.87;49.21
550;BME280;20066;48.764;9.176;2023-05-29T00:35:32;98202.44;;;18.00;48.47
550;BME280;20066;48.764;9.176;2023-05-29T00:38:00;98200.66;;;17.64;49.23
550;BME280;20066;48.764;9.176;2023-05-29T00:40:28;98200.16;;;18.11;48.42
550;BME280;20066;48.764;9.176;2023-05-29T00:42:56;98194.38;;;17.39;50.01
550;BME280;20066;48.764;9.176;2023-05-29T00:45:23;98202.00;;;17.44;49.96
550;BME280;20066;48.764;9.176;2023-05-29T00:47:54;98201.69;;;17.99;49.09
550;BME280;20066;48.764;9.176;2023-05-29T00:50:22;98192.66;;;17.73;49.09
550;BME280;20066;48.764;9.176;2023-05-29T00:52:51;98190.81;;;18.12;48.35
550;BME280;20066;48.764;9.176;2023-05-29T00:55:19;98196.06;;;17.78;48.76
550;BME280;20066;48.764;9.176;2023-05-29T00:57:47;98189.59;;;18.00;48.63
550;BME280;20066;48.764;9.176;2023-05-29T01:00:16;98195.50;;;17.83;48.36
550;BME280;20066;48.764;9.176;2023-05-29T01:02:46;98194.63;;;17.86;48.84
550;BME280;20066;48.764;9.176;2023-05-29T01:05:16;98195.41;;;17.57;50.04
550;BME280;20066;48.764;9.176;2023-05-29T01:07:45;98190.59;;;17.20;50.72
550;BME280;20066;48.764;9.176;2023-05-29T01:10:13;98187.22;;;17.86;48.78
550;BME280;20066;48.764;9.176;2023-05-29T01:12:47;98189.94;;;17.16;50.20
550;BME280;20066;48.764;9.176;2023-05-29T01:15:22;98195.47;;;17.41;49.58
550;BME280;20066;48.764;9.176;2023-05-29T01:18:06;98198.66;;;17.81;49.24
550;BME280;20066;48.764;9.176;2023-05-29T01:20:39;98195.31;;;17.32;50.40
550;BME280;20066;48.764;9.176;2023-05-29T01:23:34;98194.03;;;17.65;49.15
550;BME280;20066;48.764;9.176;2023-05-29T01:26:14;98194.41;;;17.22;50.25
550;BME280;20066;48.764;9.176;2023-05-29T01:28:52;98190.13;;;17.38;49.98
550;BME280;20066;48.764;9.176;2023-05-29T01:31:23;98184.50;;;17.45;49.55
550;BME280;20066;48.764;9.176;2023-05-29T01:33:54;98177.00;;;16.71;51.71
550;BME280;20066;48.764;9.176;2023-05-29T01:36:22;98180.66;;;16.65;51.29
550;BME280;20066;48.764;9.176;2023-05-29T01:38:51;98176.75;;;16.82;51.41
550;BME280;20066;48.764;9.176;2023-05-29T01:41:20;98184.66;;;16.60;51.58
550;BME280;20066;48.764;9.176;2023-05-29T01:43:50;98188.56;;;16.91;51.17
550;BME280;20066;48.764;9.176;2023-05-29T01:46:19;98194.50;;;15.98;54.01
550;BME280;20066;48.764;9.176;2023-05-29T01:48:47;98204.66;;;16.14;53.23
550;BME280;20066;48.764;9.176;2023-05-29T01:51:15;98197.88;;;16.58;52.25
550;BME280;20066;48.764;9.176;2023-05-29T01:53:43;98198.13;;;16.96;50.90
550;BME280;20066;48.764;9.176;2023-05-29T01:56:11;98195.81;;;16.30;52.67
550;BME280;20066;48.764;9.176;2023-05-29T01:58:40;98201.19;;;16.82;51.29
550;BME280;20066;48.764;9.176;2023-05-29T02:01:09;98200.59;;;16.90;50.89
550;BME280;20066;48.764;9.176;2023-05-29T02:03:37;98207.13;;;17.25;49.76
550;BME280;20066;48.764;9.176;2023-05-29T02:06:05;98204.84;;;17.24;49.72
550;BME280;20066;48.764;9.176;2023-05-29T02:08:34;98205.34;;;16.54;51.43
550;BME280;20066;48.764;9.176;2023-05-29T02:11:02;98206.59;;;16.49;51.55
550;BME280;20066;48.764;9.176;2023-05-29T02:13:29;98198.69;;;17.07;50.25
550;BME280;20066;48.764;9.176;2023-05-29T02:15:57;98205.38;;;17.19;50.06
550;BME280;20066;48.764;9.176;2023-05-29T02:18:26;98199.50;;;17.04;50.13
550;BME280;20066;48.764;9.176;2023-05-29T02:20:54;98196.13;;;17.00;50.11
550;BME280;20066;48.764;9.176;2023-05-29T02:23:22;98198.06;;;16.67;50.98
550;BME280;20066;48.764;9.176;2023-05-29T02:25:50;98190.94;;;16.89;50.74
550;BME280;20066;48.764;9.176;2023-05-29T02:28:18;98192.28;;;16.98;50.22
550;BME280;20066;48.764;9.176;2023-05-29T02:30:46;98195.03;;;16.29;52.44
550;BME280;20066;48.764;9.176;2023-05-29T02:33:14;98187.84;;;16.55;51.79
550;BME280;20066;48.764;9.176;2023-05-29T02:35:43;98191.09;;;16.66;51.02
550;BME280;20066;48.764;9.176;2023-05-29T02:38:11;98191.84;;;16.50;51.37
550;BME280;20066;48.764;9.176;2023-05-29T02:40:39;98195.06;;;16.45;52.04
550;BME280;20066;48.764;9.176;2023-05-29T02:43:08;98196.53;;;16.82;50.89
550;BME280;20066;48.764;9.176;2023-05-29T02:45:36;98198.53;;;15.90;53.15
550;BME280;20066;48.764;9.176;2023-05-29T02:48:05;98194.88;;;16.36;52.08
550;BME280;20066;48.764;9.176;2023-05-29T02:50:33;98186.19;;;16.25;52.00
550;BME280;20066;48.764;9.176;2023-05-29T02:53:02;98188.84;;;16.09;53.02
550;BME280;20066;48.764;9.176;2023-05-29T02:55:30;98187.81;;;16.39;52.10
550;BME280;20066;48.764;9.176;2023-05-29T02:58:02;98181.50;;;16.45;51.68
550;BME280;20066;48.764;9.176;2023-05-29T03:00:30;98179.53;;;16.46;51.92
550;BME280;20066;48.764;9.176;2023-05-29T03:02:57;98176.16;;;16.58;51.39
550;BME280;20066;48.764;9.176;2023-05-29T03:05:25;98168.66;;;16.62;51.07
550;BME280;20066;48.764;9.176;2023-05-29T03:07:53;98168.41;;;16.40;51.69
550;BME280;20066;48.764;9.176;2023-05-29T03:10:23;98175.53;;;16.34;51.84
550;BME280;20066;48.764;9.176;2023-05-29T03:12:50;98175.31;;;16.61;50.88
550;BME280;20066;48.764;9.176;2023-05-29T03:15:18;98183.69;;;16.50;51.91
550;BME280;20066;48.764;9.176;2023-05-29T03:17:47;98182.19;;;16.66;51.01
550;BME280;20066;48.764;9.176;2023-05-29T03:20:15;98177.56;;;16.46;51.38
550;BME280;20066;48.764;9.176;2023-05-29T03:22:43;98177.41;;;16.37;51.71
550;BME280;20066;48.764;9.176;2023-05-29T03:25:11;98185.47;;;16.57;51.59
550;BME280;20066;48.764;9.176;2023-05-29T03:27:40;98184.88;;;16.49;51.11
550;BME280;20066;48.764;9.176;2023-05-29T03:30:08;98175.22;;;15.93;53.47
550;BME280;20066;48.764;9.176;2023-05-29T03:32:37;98183.06;;;16.27;51.88
550;BME280;20066;48.764;9.176;2023-05-29T03:35:05;98182.75;;;16.57;51.24
550;BME280;20066;48.764;9.176;2023-05-29T03:37:32;98187.53;;;16.69;51.01
550;BME280;20066;48.764;9.176;2023-05-29T03:40:00;98187.09;;;16.38;51.53
550;BME280;20066;48.764;9.176;2023-05-29T03:42:28;98189.38;;;16.56;51.01
550;BME280;20066;48.764;9.176;2023-05-29T03:44:59;98183.22;;;15.80;53.41
550;BME280;20066;48.764;9.176;2023-05-29T03:47:26;98183.44;;;15.69;53.37
550;BME280;20066;48.764;9.176;2023-05-29T03:49:54;98181.97;;;16.04;52.97
550;BME280;20066;48.764;9.176;2023-05-29T03:52:22;98181.44;;;16.13;52.61
550;BME280;20066;48.764;9.176;2023-05-29T03:54:50;98186.88;;;16.09;52.50
550;BME280;20066;48.764;9.176;2023-05-29T03:57:18;98187.53;;;15.97;52.79
550;BME280;20066;48.764;9.176;2023-05-29T03:59:46;98196.16;;;15.92;53.19
550;BME280;20066;48.764;9.176;2023-05-29T04:02:15;98202.16;;;15.21;55.36
550;BME280;20066;48.764;9.176;2023-05-29T04:04:45;98193.66;;;15.62;53.79
550;BME280;20066;48.764;9.176;2023-05-29T04:07:13;98202.81;;;15.48;54.72
550;BME280;20066;48.764;9.176;2023-05-29T04:09:41;98209.31;;;16.13;52.40
550;BME280;20066;48.764;9.176;2023-05-29T04:12:09;98214.72;;;15.94;52.71
550;BME280;20066;48.764;9.176;2023-05-29T04:14:37;98226.91;;;15.66;53.52
550;BME280;20066;48.764;9.176;2023-05-29T04:17:05;98223.31;;;15.49;54.49
550;BME280;20066;48.764;9.176;2023-05-29T04:19:34;98223.53;;;15.15;55.23
550;BME280;20066;48.764;9.176;2023-05-29T04:22:02;98231.66;;;15.38;54.35
550;BME280;20066;48.764;9.176;2023-05-29T04:24:29;98229.81;;;15.32;55.04
550;BME280;20066;48.764;9.176;2023-05-29T04:26:58;98226.84;;;15.89;53.79
550;BME280;20066;48.764;9.176;2023-05-29T04:29:28;98225.22;;;16.31;52.57
550;BME280;20066;48.764;9.176;2023-05-29T04:31:56;98228.41;;;16.46;51.81
550;BME280;20066;48.764;9.176;2023-05-29T04:34:24;98243.75;;;15.97;53.52
550;BME280;20066;48.764;9.176;2023-05-29T04:36:53;98244.72;;;16.26;52.67
550;BME280;20066;48.764;9.176;2023-05-29T04:39:21;98247.53;;;16.58;51.69
550;BME280;20066;48.764;9.176;2023-05-29T04:41:49;98243.78;;;16.52;51.68
550;BME280;20066;48.764;9.176;2023-05-29T04:44:17;98245.84;;;15.89;53.29
550;BME280;20066;48.764;9.176;2023-05-29T04:46:45;98248.03;;;16.53;51.82
550;BME280;20066;48.764;9.176;2023-05-29T04:49:13;98248.31;;;16.75;51.60
550;BME280;20066;48.764;9.176;2023-05-29T04:51:41;98262.09;;;16.48;51.67
550;BME280;20066;48.764;9.176;2023-05-29T04:54:11;98254.94;;;16.74;51.69
550;BME280;20066;48.764;9.176;2023-05-29T04:56:39;98255.09;;;16.67;51.48
550;BME280;20066;48.764;9.176;2023-05-29T04:59:07;98255.44;;;16.69;50.56
550;BME280;20066;48.764;9.176;2023-05-29T05:01:35;98256.88;;;16.74;50.67
550;BME280;20066;48.764;9.176;2023-05-29T05:04:03;98253.00;;;16.75;51.25
550;BME280;20066;48.764;9.176;2023-05-29T05:06:32;98255.91;;;17.16;50.18
550;BME280;20066;48.764;9.176;2023-05-29T05:08:59;98258.13;;;17.38;49.71
550;BME280;20066;48.764;9.176;2023-05-29T05:11:29;98255.91;;;17.32;49.56
550;BME280;20066;48.764;9.176;2023-05-29T05:13:56;98265.13;;;17.03;50.98
550;BME280;20066;48.764;9.176;2023-05-29T05:16:24;98265.41;;;17.41;50.06
550;BME280;20066;48.764;9.176;2023-05-29T05:18:52;98267.50;;;17.65;49.12
550;BME280;20066;48.764;9.176;2023-05-29T05:21:20;98263.50;;;17.70;48.90
550;BME280;20066;48.764;9.176;2023-05-29T05:23:47;98263.44;;;17.57;49.23
550;BME280;20066;48.764;9.176;2023-05-29T05:26:24;98262.75;;;17.69;50.20
550;BME280;20066;48.764;9.176;2023-05-29T05:28:54;98260.25;;;17.14;51.87
550;BME280;20066;48.764;9.176;2023-05-29T05:31:23;98272.47;;;17.83;50.34
550;BME280;20066;48.764;9.176;2023-05-29T05:33:51;98265.09;;;17.39;51.50
550;BME280;20066;48.764;9.176;2023-05-29T05:36:19;98272.91;;;18.10;49.89
550;BME280;20066;48.764;9.176;2023-05-29T05:38:47;98269.25;;;18.30;48.75
550;BME280;20066;48.764;9.176;2023-05-29T05:41:15;98273.13;;;18.58;48.18
550;BME280;20066;48.764;9.176;2023-05-29T05:43:43;98276.88;;;17.93;48.63
550;BME280;20066;48.764;9.176;2023-05-29T05:46:12;98273.53;;;18.31;48.18
550;BME280;20066;48.764;9.176;2023-05-29T05:48:42;98271.28;;;18.55;47.72
550;BME280;20066;48.764;9.176;2023-05-29T05:51:09;98266.81;;;18.61;46.53
550;BME280;20066;48.764;9.176;2023-05-29T05:53:39;98277.28;;;18.88;46.76
550;BME280;20066;48.764;9.176;2023-05-29T05:56:06;98277.94;;;18.25;47.46
550;BME280;20066;48.764;9.176;2023-05-29T05:58:34;98288.25;;;18.71;46.45
550;BME280;20066;48.764;9.176;2023-05-29T06:01:02;98285.75;;;19.28;45.55
550;BME280;20066;48.764;9.176;2023-05-29T06:03:31;98286.75;;;19.21;45.67
550;BME280;20066;48.764;9.176;2023-05-29T06:06:00;98296.34;;;18.62;45.58
550;BME280;20066;48.764;9.176;2023-05-29T06:08:28;98294.81;;;18.07;47.25
550;BME280;20066;48.764;9.176;2023-05-29T06:10:56;98299.56;;;18.03;47.72
550;BME280;20066;48.764;9.176;2023-05-29T06:13:24;98308.38;;;18.90;47.05
550;BME280;20066;48.764;9.176;2023-05-29T06:15:52;98301.63;;;17.21;48.70
550;BME280;20066;48.764;9.176;2023-05-29T06:18:20;98302.91;;;17.78;48.04
550;BME280;20066;48.764;9.176;2023-05-29T06:20:49;98310.63;;;17.51;48.30
550;BME280;20066;48.764;9.176;2023-05-29T06:23:18;98307.03;;;18.15;47.10
550;BME280;20066;48.764;9.176;2023-05-29T06:25:46;98307.72;;;18.03;47.86
550;BME280;20066;48.764;9.176;2023-05-29T06:28:14;98306.34;;;18.11;46.98
550;BME280;20066;48.764;9.176;2023-05-29T06:30:42;98311.66;;;18.02;47.33
550;BME280;20066;48.764;9.176;2023-05-29T06:33:12;98312.84;;;18.84;45.34
550;BME280;20066;48.764;9.176;2023-05-29T06:35:40;98321.50;;;18.12;47.14
550;BME280;20066;48.764;9.176;2023-05-29T06:38:09;98324.53;;;18.43;46.07
550;BME280;20066;48.764;9.176;2023-05-29T06:40:36;98326.59;;;17.94;47.77
550;BME280;20066;48.764;9.176;2023-05-29T06:43:04;98330.31;;;18.45;46.61
550;BME280;20066;48.764;9.176;2023-05-29T06:45:32;98329.53;;;18.32;48.13
550;BME280;20066;48.764;9.176;2023-05-29T06:48:00;98328.00;;;18.98;46.24
550;BME280;20066;48.764;9.176;2023-05-29T06:50:28;98339.75;;;18.69;46.38
550;BME280;20066;48.764;9.176;2023-05-29T06:52:55;98333.66;;;19.03;45.79
550;BME280;20066;48.764;9.176;2023-05-29T06:55:24;98339.88;;;19.04;45.80
550;BME280;20066;48.764;9.176;2023-05-29T06:57:52;98338.22;;;18.68;46.49
550;BME280;20066;48.764;9.176;2023-05-29T07:00:20;98332.91;;;18.90;46.17
550;BME280;20066;48.764;9.176;2023-05-29T07:02:49;98333.94;;;18.55;46.53
550;BME280;20066;48.764;9.176;2023-05-29T07:05:18;98344.38;;;18.85;45.47
550;BME280;20066;48.764;9.176;2023-05-29T07:07:46;98349.66;;;18.76;45.52
550;BME280;20066;48.764;9.176;2023-05-29T07:10:14;98344.38;;;18.85;45.51
550;BME280;20066;48.764;9.176;2023-05-29T07:12:43;98356.56;;;19.44;43.37
550;BME280;20066;48.764;9.176;2023-05-29T07:15:11;98356.56;;;19.18;44.27
550;BME280;20066;48.764;9.176;2023-05-29T07:17:39;98359.31;;;19.31;44.42
550;BME280;20066;48.764;9.176;2023-05-29T07:20:07;98353.81;;;19.56;43.84
550;BME280;20066;48.764;9.176;2023-05-29T07:22:35;98351.44;;;21.33;41.21
550;BME280;20066;48.764;9.176;2023-05-29T07:25:05;98346.44;;;21.00;40.85
550;BME280;20066;48.764;9.176;2023-05-29T07:27:34;98346.84;;;20.02;42.83
550;BME280;20066;48.764;9.176;2023-05-29T07:30:05;98341.56;;;19.86;43.33
550;BME280;20066;48.764;9.176;2023-05-29T07:32:33;98346.03;;;19.80;45.35
550;BME280;20066;48.764;9.176;2023-05-29T07:35:02;98345.94;;;20.62;42.87
550;BME280;20066;48.764;9.176;2023-05-29T07:37:30;98346.94;;;20.77;43.07
550;BME280;20066;48.764;9.176;2023-05-29T07:39:58;98346.88;;;19.90;44.49
550;BME280;20066;48.764;9.176;2023-05-29T07:42:26;98353.50;;;20.80;42.93
550;BME280;20066;48.764;9.176;2023-05-29T07:44:54;98355.63;;;21.56;40.61
550;BME280;20066;48.764;9.176;2023-05-29T07:47:23;98346.38;;;20.38;42.86
550;BME280;20066;48.764;9.176;2023-05-29T07:49:51;98345.06;;;21.36;44.05
550;BME280;20066;48.764;9.176;2023-05-29T07:52:20;98351.63;;;21.38;41.59
550;BME280;20066;48.764;9.176;2023-05-29T07:54:48;98352.94;;;22.28;41.00
550;BME280;20066;48.764;9.176;2023-05-29T07:57:16;98352.44;;;20.55;41.64
550;BME280;20066;48.764;9.176;2023-05-29T07:59:43;98350.75;;;20.58;42.05
550;BME280;20066;48.764;9.176;2023-05-29T08:02:11;98353.13;;;22.16;39.99
550;BME280;20066;48.764;9.176;2023-05-29T08:04:40;98354.84;;;21.15;40.89
550;BME280;20066;48.764;9.176;2023-05-29T08:07:08;98355.84;;;22.07;39.09
550;BME280;20066;48.764;9.176;2023-05-29T08:09:36;98352.84;;;21.46;40.06
550;BME280;20066;48.764;9.176;2023-05-29T08:12:04;98346.91;;;22.94;40.09
550;BME280;20066;48.764;9.176;2023-05-29T08:14:32;98348.81;;;21.97;38.48
550;BME280;20066;48.764;9.176;2023-05-29T08:17:00;98350.16;;;21.65;38.43
550;BME280;20066;48.764;9.176;2023-05-29T08:19:28;98350.69;;;22.00;39.28
550;BME280;20066;48.764;9.176;2023-05-29T08:21:58;98358.41;;;21.83;38.70
550;BME280;20066;48.764;9.176;2023-05-29T08:24:26;98355.31;;;23.23;38.66
550;BME280;20066;48.764;9.176;2023-05-29T08:26:54;98352.25;;;21.51;39.61
550;BME280;20066;48.764;9.176;2023-05-29T08:29:22;98351.91;;;22.26;38.13
550;BME280;20066;48.764;9.176;2023-05-29T08:31:51;98356.34;;;23.35;36.59
550;BME280;20066;48.764;9.176;2023-05-29T08:34:19;98355.47;;;22.68;37.79
550;BME280;20066;48.764;9.176;2023-05-29T08:36:50;98357.91;;;22.85;37.13
550;BME280;20066;48.764;9.176;2023-05-29T08:39:22;98354.94;;;23.72;35.63
550;BME280;20066;48.764;9.176;2023-05-29T08:41:56;98341.66;;;22.36;37.61
550;BME280;20066;48.764;9.176;2023-05-29T08:44:30;98349.88;;;22.63;37.11
550;BME280;20066;48.764;9.176;2023-05-29T08:47:01;98341.44;;;23.27;36.37
550;BME280;20066;48.764;9.176;2023-05-29T08:49:34;98349.88;;;22.72;37.26
550;BME280;20066;48.764;9.176;2023-05-29T08:52:09;98353.75;;;22.98;37.42
550;BME280;20066;48.764;9.176;2023-05-29T08:54:40;98351.13;;;23.46;37.28
550;BME280;20066;48.764;9.176;2023-05-29T08:57:09;98357.00;;;22.70;37.88
550;BME280;20066;48.764;9.176;2023-05-29T08:59:42;98352.72;;;22.87;39.36
550;BME280;20066;48.764;9.176;2023-05-29T09:02:11;98353.53;;;23.77;35.95
550;BME280;20066;48.764;9.176;2023-05-29T09:04:41;98359.56;;;22.91;37.73
550;BME280;20066;48.764;9.176;2023-05-29T09:07:11;98359.25;;;23.88;38.22
550;BME280;20066;48.764;9.176;2023-05-29T09:09:42;98364.81;;;23.79;36.65
550;BME280;20066;48.764;9.176;2023-05-29T09:12:10;98351.53;;;24.54;35.45
550;BME280;20066;48.764;9.176;2023-05-29T09:14:40;98361.06;;;24.15;37.55
550;BME280;20066;48.764;9.176;2023-05-29T09:17:10;98355.19;;;25.25;38.87
550;BME280;20066;48.764;9.176;2023-05-29T09:19:39;98356.63;;;23.37;37.71
550;BME280;20066;48.764;9.176;2023-05-29T09:22:08;98359.38;;;23.70;38.54
550;BME280;20066;48.764;9.176;2023-05-29T09:24:43;98357.75;;;25.28;36.41
550;BME280;20066;48.764;9.176;2023-05-29T09:27:13;98355.53;;;25.12;39.00
550;BME280;20066;48.764;9.176;2023-05-29T09:29:43;98354.94;;;24.64;35.29
550;BME280;20066;48.764;9.176;2023-05-29T09:32:13;98354.00;;;24.67;38.12
550;BME280;20066;48.764;9.176;2023-05-29T09:34:42;98361.06;;;24.98;37.90
550;BME280;20066;48.764;9.176;2023-05-29T09:37:11;98357.19;;;24.36;37.60
550;BME280;20066;48.764;9.176;2023-05-29T09:39:47;98365.09;;;23.57;37.60
550;BME280;20066;48.764;9.176;2023-05-29T09:42:16;98358.19;;;24.09;36.27
550;BME280;20066;48.764;9.176;2023-05-29T09:44:48;98357.50;;;26.02;33.71
550;BME280;20066;48.764;9.176;2023-05-29T09:47:18;98371.00;;;24.51;36.37
550;BME280;20066;48.764;9.176;2023-05-29T09:49:47;98356.25;;;25.62;35.00
550;BME280;20066;48.764;9.176;2023-05-29T09:52:20;98361.44;;;25.95;33.60
550;BME280;20066;48.764;9.176;2023-05-29T09:54:50;98371.69;;;26.15;33.59
550;BME280;20066;48.764;9.176;2023-05-29T09:57:20;98362.03;;;25.64;35.45
550;BME280;20066;48.764;9.176;2023-05-29T09:59:52;98359.97;;;25.80;33.68
550;BME280;20066;48.764;9.176;2023-05-29T10:02:20;98356.72;;;25.26;34.10
550;BME280;20066;48.764;9.176;2023-05-29T10:04:48;98347.75;;;24.96;34.46
550;BME280;20066;48.764;9.176;2023-05-29T10:07:22;98357.06;;;24.84;34.36
550;BME280;20066;48.764;9.176;2023-05-29T10:10:02;98345.50;;;26.51;33.58
550;BME280;20066;48.764;9.176;2023-05-29T10:12:38;98343.06;;;28.12;31.27
550;BME280;20066;48.764;9.176;2023-05-29T10:15:12;98333.75;;;26.30;32.20
550;BME280;20066;48.764;9.176;2023-05-29T10:17:49;98339.88;;;25.74;33.04
550;BME280;20066;48.764;9.176;2023-05-29T10:23:18;98331.03;;;26.62;31.38
550;BME280;20066;48.764;9.176;2023-05-29T10:25:49;98330.44;;;26.78;29.89
550;BME280;20066;48.764;9.176;2023-05-29T10:28:19;98324.22;;;26.57;31.05
550;BME280;20066;48.764;9.176;2023-05-29T10:30:54;98320.53;;;27.82;29.64
550;BME280;20066;48.764;9.176;2023-05-29T10:33:41;98318.63;;;28.11;27.39
550;BME280;20066;48.764;9.176;2023-05-29T10:36:13;98314.59;;;26.73;30.74
550;BME280;20066;48.764;9.176;2023-05-29T10:38:45;98304.34;;;26.53;29.38
550;BME280;20066;48.764;9.176;2023-05-29T10:41:33;98319.19;;;26.30;30.14
550;BME280;20066;48.764;9.176;2023-05-29T10:44:39;98318.13;;;26.73;32.70
550;BME280;20066;48.764;9.176;2023-05-29T10:47:10;98315.84;;;26.00;28.84
550;BME280;20066;48.764;9.176;2023-05-29T10:49:39;98316.81;;;27.00;27.76
550;BME280;20066;48.764;9.176;2023-05-29T10:52:18;98308.22;;;26.10;28.79
550;BME280;20066;48.764;9.176;2023-05-29T10:54:53;98314.69;;;27.21;28.21
550;BME280;20066;48.764;9.176;2023-05-29T10:57:23;98322.22;;;27.20;29.98
550;BME280;20066;48.764;9.176;2023-05-29T11:00:08;98309.81;;;27.05;28.08
550;BME280;20066;48.764;9.176;2023-05-29T11:02:40;98319.22;;;30.47;23.72
550;BME280;20066;48.764;9.176;2023-05-29T11:05:20;98311.44;;;29.94;28.89
550;BME280;20066;48.764;9.176;2023-05-29T11:08:00;98312.69;;;29.01;26.00
550;BME280;20066;48.764;9.176;2023-05-29T11:13:53;98313.00;;;27.83;26.46
550;BME280;20066;48.764;9.176;2023-05-29T11:16:38;98317.19;;;29.38;24.70
550;BME280;20066;48.764;9.176;2023-05-29T11:19:10;98319.50;;;31.04;25.04
550;BME280;20066;48.764;9.176;2023-05-29T11:22:14;98318.47;;;29.95;25.36
550;BME280;20066;48.764;9.176;2023-05-29T11:25:36;98323.13;;;30.69;23.01
550;BME280;20066;48.764;9.176;2023-05-29T11:28:05;98317.00;;;29.94;24.55
550;BME280;20066;48.764;9.176;2023-05-29T11:30:47;98319.16;;;29.54;24.48
550;BME280;20066;48.764;9.176;2023-05-29T11:33:23;98313.59;;;30.88;22.50
550;BME280;20066;48.764;9.176;2023-05-29T11:35:56;98306.09;;;29.32;24.70
550;BME280;20066;48.764;9.176;2023-05-29T11:38:24;98313.44;;;29.19;24.15
550;BME280;20066;48.764;9.176;2023-05-29T11:40:54;98310.50;;;29.80;23.84
550;BME280;20066;48.764;9.176;2023-05-29T11:43:22;98314.94;;;29.25;25.16
550;BME280;20066;48.764;9.176;2023-05-29T11:45:51;98321.88;;;31.91;20.95
550;BME280;20066;48.764;9.176;2023-05-29T11:48:20;98312.94;;;29.15;23.37
550;BME280;20066;48.764;9.176;2023-05-29T11:50:48;98299.69;;;31.86;23.92
550;BME280;20066;48.764;9.176;2023-05-29T11:53:16;98313.47;;;30.40;23.28
550;BME280;20066;48.764;9.176;2023-05-29T11:55:44;98314.09;;;29.64;24.74
550;BME280;20066;48.764;9.176;2023-05-29T11:58:12;98296.34;;;28.81;22.62
550;BME280;20066;48.764;9.176;2023-05-29T12:00:40;98302.44;;;32.42;21.96
550;BME280;20066;48.764;9.176;2023-05-29T12:03:11;98302.41;;;29.82;21.49
550;BME280;20066;48.764;9.176;2023-05-29T12:05:46;98310.41;;;29.97;21.76
550;BME280;20066;48.764;9.176;2023-05-29T12:08:15;98301.66;;;30.69;21.35
550;BME280;20066;48.764;9.176;2023-05-29T12:10:47;98314.66;;;31.58;20.01
550;BME280;20066;48.764;9.176;2023-05-29T12:13:15;98316.03;;;31.27;22.86
550;BME280;20066;48.764;9.176;2023-05-29T12:15:44;98290.84;;;31.63;20.28
550;BME280;20066;48.764;9.176;2023-05-29T12:18:13;98313.06;;;30.25;20.97
550;BME280;20066;48.764;9.176;2023-05-29T12:20:41;98300.13;;;29.86;21.42
550;BME280;20066;48.764;9.176;2023-05-29T12:23:09;98303.13;;;30.35;21.48
550;BME280;20066;48.764;9.176;2023-05-29T12:25:38;98307.81;;;30.51;20.53
550;BME280;20066;48.764;9.176;2023-05-29T12:28:06;98305.69;;;31.71;20.40
550;BME280;20066;48.764;9.176;2023-05-29T12:30:37;98294.25;;;32.12;19.25
550;BME280;20066;48.764;9.176;2023-05-29T12:33:05;98315.47;;;28.79;21.20
550;BME280;20066;48.764;9.176;2023-05-29T12:35:35;98306.44;;;30.98;20.04
550;BME280;20066;48.764;9.176;2023-05-29T12:38:05;98308.25;;;30.60;20.01
550;BME280;20066;48.764;9.176;2023-05-29T12:40:35;98310.94;;;33.27;18.28
550;BME280;20066;48.764;9.176;2023-05-29T12:43:05;98304.50;;;34.73;16.55
550;BME280;20066;48.764;9.176;2023-05-29T12:45:33;98298.09;;;30.33;20.17
550;BME280;20066;48.764;9.176;2023-05-29T12:48:04;98316.50;;;29.90;19.81
550;BME280;20066;48.764;9.176;2023-05-29T12:50:35;98311.50;;;30.65;19.33
550;BME280;20066;48.764;9.176;2023-05-29T12:53:06;98309.34;;;32.54;18.12
550;BME280;20066;48.764;9.176;2023-05-29T12:55:36;98309.44;;;32.80;18.12
550;BME280;20066;48.764;9.176;2023-05-29T12:58:06;98317.41;;;30.50;18.78
550;BME280;20066;48.764;9.176;2023-05-29T13:00:35;98310.53;;;30.56;18.26
550;BME280;20066;48.764;9.176;2023-05-29T13:03:03;98320.22;;;29.34;18.67
550;BME280;20066;48.764;9.176;2023-05-29T13:05:33;98310.53;;;30.62;18.16
550;BME280;20066;48.764;9.176;2023-05-29T13:08:02;98314.63;;;29.40;19.85
550;BME280;20066;48.764;9.176;2023-05-29T13:10:31;98304.59;;;30.00;19.98
550;BME280;20066;48.764;9.176;2023-05-29T13:12:59;98297.69;;;30.18;18.62
550;BME280;20066;48.764;9.176;2023-05-29T13:15:27;98290.88;;;29.56;19.37
550;BME280;20066;48.764;9.176;2023-05-29T13:17:55;98302.16;;;30.32;18.55
550;BME280;20066;48.764;9.176;2023-05-29T13:20:23;98298.69;;;30.20;18.88
550;BME280;20066;48.764;9.176;2023-05-29T13:22:51;98290.81;;;30.30;19.33
550;BME280;20066;48.764;9.176;2023-05-29T13:25:22;98300.09;;;34.44;16.30
550;BME280;20066;48.764;9.176;2023-05-29T13:27:52;98298.50;;;29.44;18.96
550;BME280;20066;48.764;9.176;2023-05-29T13:30:20;98289.81;;;31.42;17.50
550;BME280;20066;48.764;9.176;2023-05-29T13:32:49;98296.28;;;31.74;18.47
550;BME280;20066;48.764;9.176;2023-05-29T13:35:18;98285.88;;;29.54;19.15
550;BME280;20066;48.764;9.176;2023-05-29T13:37:46;98281.66;;;29.25;19.63
550;BME280;20066;48.764;9.176;2023-05-29T13:40:14;98290.47;;;31.53;17.99
550;BME280;20066;48.764;9.176;2023-05-29T13:42:43;98279.47;;;28.57;20.00